Maloyaroslavets, Russia
Current Conditions -  °F | °C
As of 6:30 AM on Sunday 26 Oct 2014 (Local Time) from UUWW Reporting Station
Clear Clear  
Wind Chill:   Ceiling: Unl
Heat Index: 18°   Visibility: 6mi
Dew Point: 12°   Wind: 7mph
Humidity: 79%   Direction: 220°SW
Pressure: 30.56"   Gusts: NA
Location:  55.01°N, 36.47°E
Report Text: UUWW 260330Z 22003MPS CAVOK M08/M11 Q1035 24190060 NOSIG
Loading
Personal Weather Stations






























Interactive Weather Map
Tropical Storm Tracking
New forecast layout! Learn more

10-Day Weather Forecast

Advertisements
Track Severe Weather on mobile